sensor_id;sensor_type;location;lat;lon;timestamp;pressure;altitude;pressure_sealevel;temperature;humidity
67545;BME280;54380;47.770;11.150;2023-11-21T00:01:04;94329.47;;;7.01;63.67
67545;BME280;54380;47.770;11.150;2023-11-21T00:03:32;94325.97;;;6.95;64.11
67545;BME280;54380;47.770;11.150;2023-11-21T00:05:59;94322.22;;;6.91;63.94
67545;BME280;54380;47.770;11.150;2023-11-21T00:08:27;94318.56;;;6.92;64.61
67545;BME280;54380;47.770;11.150;2023-11-21T00:10:54;94313.31;;;6.92;64.77
67545;BME280;54380;47.770;11.150;2023-11-21T00:13:21;94317.28;;;6.95;64.97
67545;BME280;54380;47.770;11.150;2023-11-21T00:15:48;94317.63;;;6.98;64.96
67545;BME280;54380;47.770;11.150;2023-11-21T00:18:14;94311.09;;;7.01;65.17
67545;BME280;54380;47.770;11.150;2023-11-21T00:20:42;94312.19;;;7.05;65.63
67545;BME280;54380;47.770;11.150;2023-11-21T00:23:09;94312.25;;;7.10;65.36
67545;BME280;54380;47.770;11.150;2023-11-21T00:25:36;94308.91;;;7.15;64.90
67545;BME280;54380;47.770;11.150;2023-11-21T00:28:03;94303.09;;;7.13;64.67
67545;BME280;54380;47.770;11.150;2023-11-21T00:30:29;94304.66;;;7.09;64.65
67545;BME280;54380;47.770;11.150;2023-11-21T00:32:57;94301.94;;;7.03;64.87
67545;BME280;54380;47.770;11.150;2023-11-21T00:35:25;94301.38;;;7.01;65.06
67545;BME280;54380;47.770;11.150;2023-11-21T00:37:54;94299.00;;;7.00;64.63
67545;BME280;54380;47.770;11.150;2023-11-21T00:40:21;94302.09;;;6.97;64.84
67545;BME280;54380;47.770;11.150;2023-11-21T00:42:48;94296.38;;;7.00;65.14
67545;BME280;54380;47.770;11.150;2023-11-21T00:45:15;94295.59;;;6.99;65.60
67545;BME280;54380;47.770;11.150;2023-11-21T00:47:42;94296.16;;;7.01;66.10
67545;BME280;54380;47.770;11.150;2023-11-21T00:50:09;94295.44;;;7.06;65.50
67545;BME280;54380;47.770;11.150;2023-11-21T00:52:36;94294.94;;;7.09;65.84
67545;BME280;54380;47.770;11.150;2023-11-21T00:55:05;94291.19;;;7.05;65.37
67545;BME280;54380;47.770;11.150;2023-11-21T00:57:34;94293.88;;;7.10;65.79
67545;BME280;54380;47.770;11.150;2023-11-21T01:00:02;94300.97;;;7.10;65.54
67545;BME280;54380;47.770;11.150;2023-11-21T01:02:34;94292.81;;;7.06;65.36
67545;BME280;54380;47.770;11.150;2023-11-21T01:05:02;94299.00;;;7.00;65.54
67545;BME280;54380;47.770;11.150;2023-11-21T01:07:30;94297.41;;;6.99;65.72
67545;BME280;54380;47.770;11.150;2023-11-21T01:09:57;94287.97;;;6.98;66.07
67545;BME280;54380;47.770;11.150;2023-11-21T01:12:25;94299.25;;;6.98;66.35
67545;BME280;54380;47.770;11.150;2023-11-21T01:14:52;94295.09;;;7.02;66.26
67545;BME280;54380;47.770;11.150;2023-11-21T01:17:19;94296.22;;;7.07;66.25
67545;BME280;54380;47.770;11.150;2023-11-21T01:19:46;94301.47;;;7.07;65.95
67545;BME280;54380;47.770;11.150;2023-11-21T01:22:13;94306.72;;;7.07;65.95
67545;BME280;54380;47.770;11.150;2023-11-21T01:24:40;94294.88;;;7.04;66.08
67545;BME280;54380;47.770;11.150;2023-11-21T01:27:06;94295.59;;;6.99;66.23
67545;BME280;54380;47.770;11.150;2023-11-21T01:29:34;94304.81;;;7.02;65.94
67545;BME280;54380;47.770;11.150;2023-11-21T01:32:02;94289.63;;;7.04;66.19
67545;BME280;54380;47.770;11.150;2023-11-21T01:34:28;94297.22;;;7.06;66.06
67545;BME280;54380;47.770;11.150;2023-11-21T01:36:55;94293.81;;;7.05;65.82
67545;BME280;54380;47.770;11.150;2023-11-21T01:39:22;94297.97;;;7.01;65.53
67545;BME280;54380;47.770;11.150;2023-11-21T01:41:50;94297.56;;;6.92;65.36
67545;BME280;54380;47.770;11.150;2023-11-21T01:44:18;94293.06;;;6.88;65.41
67545;BME280;54380;47.770;11.150;2023-11-21T01:46:47;94298.31;;;6.88;65.83
67545;BME280;54380;47.770;11.150;2023-11-21T01:49:14;94300.38;;;6.86;65.50
67545;BME280;54380;47.770;11.150;2023-11-21T01:51:42;94296.63;;;6.81;65.41
67545;BME280;54380;47.770;11.150;2023-11-21T01:54:10;94288.53;;;6.83;65.48
67545;BME280;54380;47.770;11.150;2023-11-21T01:56:43;94296.63;;;6.81;65.58
67545;BME280;54380;47.770;11.150;2023-11-21T01:59:11;94293.50;;;6.79;65.48
67545;BME280;54380;47.770;11.150;2023-11-21T02:01:38;94303.66;;;6.76;65.75
67545;BME280;54380;47.770;11.150;2023-11-21T02:04:06;94294.13;;;6.70;65.74
67545;BME280;54380;47.770;11.150;2023-11-21T02:06:34;94298.03;;;6.67;65.85
67545;BME280;54380;47.770;11.150;2023-11-21T02:09:01;94289.38;;;6.67;66.42
67545;BME280;54380;47.770;11.150;2023-11-21T02:11:28;94286.19;;;6.65;66.20
67545;BME280;54380;47.770;11.150;2023-11-21T02:13:55;94283.78;;;6.63;66.51
67545;BME280;54380;47.770;11.150;2023-11-21T02:16:21;94288.56;;;6.66;66.67
67545;BME280;54380;47.770;11.150;2023-11-21T02:18:48;94282.28;;;6.67;66.66
67545;BME280;54380;47.770;11.150;2023-11-21T02:21:17;94286.47;;;6.68;66.74
67545;BME280;54380;47.770;11.150;2023-11-21T02:23:45;94291.81;;;6.73;66.57
67545;BME280;54380;47.770;11.150;2023-11-21T02:26:13;94292.66;;;6.79;66.71
67545;BME280;54380;47.770;11.150;2023-11-21T02:28:40;94297.47;;;6.82;66.88
67545;BME280;54380;47.770;11.150;2023-11-21T02:31:07;94293.88;;;6.88;66.99
67545;BME280;54380;47.770;11.150;2023-11-21T02:33:34;94291.63;;;6.97;66.66
67545;BME280;54380;47.770;11.150;2023-11-21T02:36:01;94297.41;;;6.99;66.46
67545;BME280;54380;47.770;11.150;2023-11-21T02:38:28;94290.66;;;7.03;66.35
67545;BME280;54380;47.770;11.150;2023-11-21T02:40:57;94286.22;;;7.03;66.26
67545;BME280;54380;47.770;11.150;2023-11-21T02:43:24;94287.72;;;6.99;66.16
67545;BME280;54380;47.770;11.150;2023-11-21T02:45:51;94292.66;;;6.96;66.66
67545;BME280;54380;47.770;11.150;2023-11-21T02:48:17;94286.38;;;6.97;66.77
67545;BME280;54380;47.770;11.150;2023-11-21T02:50:44;94280.63;;;7.00;66.66
67545;BME280;54380;47.770;11.150;2023-11-21T02:53:11;94278.56;;;7.02;66.31
67545;BME280;54380;47.770;11.150;2023-11-21T02:55:39;94274.16;;;7.08;66.30
67545;BME280;54380;47.770;11.150;2023-11-21T02:58:07;94274.50;;;7.11;66.40
67545;BME280;54380;47.770;11.150;2023-11-21T03:00:34;94266.38;;;7.13;65.89
67545;BME280;54380;47.770;11.150;2023-11-21T03:03:01;94269.78;;;7.13;66.12
67545;BME280;54380;47.770;11.150;2023-11-21T03:05:28;94269.78;;;7.13;65.86
67545;BME280;54380;47.770;11.150;2023-11-21T03:07:56;94261.91;;;7.13;66.11
67545;BME280;54380;47.770;11.150;2023-11-21T03:10:22;94269.06;;;7.18;66.29
67545;BME280;54380;47.770;11.150;2023-11-21T03:12:49;94279.88;;;7.21;66.07
67545;BME280;54380;47.770;11.150;2023-11-21T03:15:17;94261.03;;;7.24;66.28
67545;BME280;54380;47.770;11.150;2023-11-21T03:17:44;94262.66;;;7.31;65.75
67545;BME280;54380;47.770;11.150;2023-11-21T03:20:11;94273.44;;;7.34;65.60
67545;BME280;54380;47.770;11.150;2023-11-21T03:22:40;94267.19;;;7.35;65.39
67545;BME280;54380;47.770;11.150;2023-11-21T03:25:07;94276.91;;;7.35;65.72
67545;BME280;54380;47.770;11.150;2023-11-21T03:27:37;94269.00;;;7.35;65.50
67545;BME280;54380;47.770;11.150;2023-11-21T03:30:07;94263.50;;;7.36;65.79
67545;BME280;54380;47.770;11.150;2023-11-21T03:32:36;94270.88;;;7.39;65.79
67545;BME280;54380;47.770;11.150;2023-11-21T03:35:03;94268.03;;;7.41;65.56
67545;BME280;54380;47.770;11.150;2023-11-21T03:37:30;94262.28;;;7.44;65.58
67545;BME280;54380;47.770;11.150;2023-11-21T03:39:57;94265.47;;;7.46;65.77
67545;BME280;54380;47.770;11.150;2023-11-21T03:42:24;94268.66;;;7.48;65.94
67545;BME280;54380;47.770;11.150;2023-11-21T03:44:53;94263.13;;;7.50;65.41
67545;BME280;54380;47.770;11.150;2023-11-21T03:47:19;94274.13;;;7.46;65.32
67545;BME280;54380;47.770;11.150;2023-11-21T03:49:48;94265.69;;;7.44;65.40
67545;BME280;54380;47.770;11.150;2023-11-21T03:52:15;94265.97;;;7.43;65.08
67545;BME280;54380;47.770;11.150;2023-11-21T03:54:42;94266.97;;;7.42;65.52
67545;BME280;54380;47.770;11.150;2023-11-21T03:57:10;94262.84;;;7.46;65.44
67545;BME280;54380;47.770;11.150;2023-11-21T03:59:39;94264.19;;;7.48;65.42
67545;BME280;54380;47.770;11.150;2023-11-21T04:02:06;94260.50;;;7.50;65.45
67545;BME280;54380;47.770;11.150;2023-11-21T04:04:34;94264.47;;;7.52;65.11
67545;BME280;54380;47.770;11.150;2023-11-21T04:07:02;94266.38;;;7.57;65.31
67545;BME280;54380;47.770;11.150;2023-11-21T04:09:29;94274.53;;;7.60;65.24
67545;BME280;54380;47.770;11.150;2023-11-21T04:11:56;94276.16;;;7.61;65.21
67545;BME280;54380;47.770;11.150;2023-11-21T04:14:23;94270.41;;;7.64;64.87
67545;BME280;54380;47.770;11.150;2023-11-21T04:16:50;94280.91;;;7.64;64.56
67545;BME280;54380;47.770;11.150;2023-11-21T04:19:17;94276.66;;;7.63;64.67
67545;BME280;54380;47.770;11.150;2023-11-21T04:21:44;94273.81;;;7.65;64.44
67545;BME280;54380;47.770;11.150;2023-11-21T04:24:12;94283.53;;;7.64;64.73
67545;BME280;54380;47.770;11.150;2023-11-21T04:26:39;94278.50;;;7.63;64.22
67545;BME280;54380;47.770;11.150;2023-11-21T04:29:05;94286.38;;;7.63;64.25
67545;BME280;54380;47.770;11.150;2023-11-21T04:31:32;94279.84;;;7.65;64.50
67545;BME280;54380;47.770;11.150;2023-11-21T04:33:59;94276.50;;;7.70;64.72
67545;BME280;54380;47.770;11.150;2023-11-21T04:36:25;94276.25;;;7.72;64.50
67545;BME280;54380;47.770;11.150;2023-11-21T04:38:52;94287.84;;;7.76;65.00
67545;BME280;54380;47.770;11.150;2023-11-21T04:41:20;94279.72;;;7.77;64.58
67545;BME280;54380;47.770;11.150;2023-11-21T04:43:47;94286.81;;;7.77;64.75
67545;BME280;54380;47.770;11.150;2023-11-21T04:46:14;94286.81;;;7.77;64.89
67545;BME280;54380;47.770;11.150;2023-11-21T04:48:40;94291.03;;;7.78;64.86
67545;BME280;54380;47.770;11.150;2023-11-21T04:51:07;94289.97;;;7.79;64.79
67545;BME280;54380;47.770;11.150;2023-11-21T04:53:33;94280.03;;;7.81;64.84
67545;BME280;54380;47.770;11.150;2023-11-21T04:56:01;94288.69;;;7.81;64.93
67545;BME280;54380;47.770;11.150;2023-11-21T04:58:29;94285.81;;;7.83;64.65
67545;BME280;54380;47.770;11.150;2023-11-21T05:00:57;94292.91;;;7.82;65.08
67545;BME280;54380;47.770;11.150;2023-11-21T05:03:23;94291.09;;;7.83;65.04
67545;BME280;54380;47.770;11.150;2023-11-21T05:05:51;94294.72;;;7.82;64.72
67545;BME280;54380;47.770;11.150;2023-11-21T05:08:17;94294.50;;;7.83;65.38
67545;BME280;54380;47.770;11.150;2023-11-21T05:10:45;94294.00;;;7.86;65.04
67545;BME280;54380;47.770;11.150;2023-11-21T05:13:12;94293.75;;;7.88;64.75
67545;BME280;54380;47.770;11.150;2023-11-21T05:15:40;94301.38;;;7.89;64.55
67545;BME280;54380;47.770;11.150;2023-11-21T05:18:07;94300.34;;;7.90;64.09
67545;BME280;54380;47.770;11.150;2023-11-21T05:20:34;94303.53;;;7.93;64.30
67545;BME280;54380;47.770;11.150;2023-11-21T05:23:00;94303.53;;;7.93;64.11
67545;BME280;54380;47.770;11.150;2023-11-21T05:25:27;94301.44;;;7.95;64.63
67545;BME280;54380;47.770;11.150;2023-11-21T05:27:54;94297.53;;;7.97;63.97
67545;BME280;54380;47.770;11.150;2023-11-21T05:30:21;94296.72;;;7.97;64.37
67545;BME280;54380;47.770;11.150;2023-11-21T05:32:49;94306.19;;;7.98;64.33
67545;BME280;54380;47.770;11.150;2023-11-21T05:35:16;94304.38;;;7.98;64.50
67545;BME280;54380;47.770;11.150;2023-11-21T05:37:44;94307.53;;;8.00;64.47
67545;BME280;54380;47.770;11.150;2023-11-21T05:40:12;94308.34;;;8.01;64.57
67545;BME280;54380;47.770;11.150;2023-11-21T05:42:40;94309.69;;;8.03;64.29
67545;BME280;54380;47.770;11.150;2023-11-21T05:45:07;94311.81;;;8.06;64.23
67545;BME280;54380;47.770;11.150;2023-11-21T05:47:38;94308.69;;;8.09;63.95
67545;BME280;54380;47.770;11.150;2023-11-21T05:50:08;94311.81;;;8.06;64.14
67545;BME280;54380;47.770;11.150;2023-11-21T05:52:39;94312.59;;;8.07;63.92
67545;BME280;54380;47.770;11.150;2023-11-21T05:55:06;94314.44;;;8.06;64.06
67545;BME280;54380;47.770;11.150;2023-11-21T05:57:33;94311.81;;;8.06;64.14
67545;BME280;54380;47.770;11.150;2023-11-21T06:00:03;94322.88;;;8.08;64.32
67545;BME280;54380;47.770;11.150;2023-11-21T06:02:36;94322.34;;;8.06;63.85
67545;BME280;54380;47.770;11.150;2023-11-21T06:05:03;94322.56;;;8.05;63.96
67545;BME280;54380;47.770;11.150;2023-11-21T06:07:32;94323.34;;;8.05;64.65
67545;BME280;54380;47.770;11.150;2023-11-21T06:09:59;94325.47;;;8.03;64.21
67545;BME280;54380;47.770;11.150;2023-11-21T06:12:25;94319.66;;;8.01;64.61
67545;BME280;54380;47.770;11.150;2023-11-21T06:14:52;94328.31;;;8.02;64.60
67545;BME280;54380;47.770;11.150;2023-11-21T06:17:19;94334.91;;;8.04;64.79
67545;BME280;54380;47.770;11.150;2023-11-21T06:19:46;94338.09;;;8.06;64.50
67545;BME280;54380;47.770;11.150;2023-11-21T06:22:13;94336.50;;;8.05;63.94
67545;BME280;54380;47.770;11.150;2023-11-21T06:24:41;94330.72;;;8.03;64.75
67545;BME280;54380;47.770;11.150;2023-11-21T06:27:08;94327.81;;;8.05;64.47
67545;BME280;54380;47.770;11.150;2023-11-21T06:29:35;94327.28;;;8.03;64.54
67545;BME280;54380;47.770;11.150;2023-11-21T06:32:02;94331.19;;;8.00;64.54
67545;BME280;54380;47.770;11.150;2023-11-21T06:34:31;94330.41;;;8.00;64.79
67545;BME280;54380;47.770;11.150;2023-11-21T06:36:58;94332.00;;;8.01;64.78
67545;BME280;54380;47.770;11.150;2023-11-21T06:39:24;94339.63;;;8.02;64.17
67545;BME280;54380;47.770;11.150;2023-11-21T06:41:52;94347.28;;;8.04;64.97
67545;BME280;54380;47.770;11.150;2023-11-21T06:44:19;94343.59;;;8.05;64.62
67545;BME280;54380;47.770;11.150;2023-11-21T06:46:46;94348.06;;;8.04;64.56
67545;BME280;54380;47.770;11.150;2023-11-21T06:49:13;94349.16;;;8.08;64.64
67545;BME280;54380;47.770;11.150;2023-11-21T06:51:39;94361.03;;;8.11;64.48
67545;BME280;54380;47.770;11.150;2023-11-21T06:54:06;94361.03;;;8.11;64.44
67545;BME280;54380;47.770;11.150;2023-11-21T06:56:32;94360.47;;;8.09;63.95
67545;BME280;54380;47.770;11.150;2023-11-21T06:59:00;94353.88;;;8.06;64.12
67545;BME280;54380;47.770;11.150;2023-11-21T07:01:27;94354.09;;;8.05;64.26
67545;BME280;54380;47.770;11.150;2023-11-21T07:03:54;94351.97;;;8.02;64.12
67545;BME280;54380;47.770;11.150;2023-11-21T07:06:21;94364.34;;;8.01;64.61
67545;BME280;54380;47.770;11.150;2023-11-21T07:08:48;94366.16;;;8.01;64.85
67545;BME280;54380;47.770;11.150;2023-11-21T07:11:14;94361.19;;;8.04;64.49
67545;BME280;54380;47.770;11.150;2023-11-21T07:13:41;94367.00;;;8.06;64.67
67545;BME280;54380;47.770;11.150;2023-11-21T07:16:09;94365.72;;;8.09;64.28
67545;BME280;54380;47.770;11.150;2023-11-21T07:18:36;94363.38;;;8.12;64.55
67545;BME280;54380;47.770;11.150;2023-11-21T07:21:03;94368.69;;;8.18;64.73
67545;BME280;54380;47.770;11.150;2023-11-21T07:23:30;94371.09;;;8.19;64.31
67545;BME280;54380;47.770;11.150;2023-11-21T07:25:57;94369.25;;;8.20;64.21
67545;BME280;54380;47.770;11.150;2023-11-21T07:28:24;94373.41;;;8.16;64.17
67545;BME280;54380;47.770;11.150;2023-11-21T07:30:50;94386.00;;;8.13;64.56
67545;BME280;54380;47.770;11.150;2023-11-21T07:33:19;94375.47;;;8.13;64.02
67545;BME280;54380;47.770;11.150;2023-11-21T07:35:45;94375.00;;;8.17;64.09
67545;BME280;54380;47.770;11.150;2023-11-21T07:38:12;94378.16;;;8.19;64.04
67545;BME280;54380;47.770;11.150;2023-11-21T07:40:39;94389.00;;;8.22;64.53
67545;BME280;54380;47.770;11.150;2023-11-21T07:43:06;94378.78;;;8.26;64.25
67545;BME280;54380;47.770;11.150;2023-11-21T07:45:33;94385.88;;;8.25;63.86
67545;BME280;54380;47.770;11.150;2023-11-21T07:48:00;94381.66;;;8.24;64.26
67545;BME280;54380;47.770;11.150;2023-11-21T07:50:30;94385.31;;;8.23;63.93
67545;BME280;54380;47.770;11.150;2023-11-21T07:52:58;94385.88;;;8.25;64.06
67545;BME280;54380;47.770;11.150;2023-11-21T07:55:26;94389.06;;;8.27;63.92
67545;BME280;54380;47.770;11.150;2023-11-21T07:57:53;94385.09;;;8.25;63.90
67545;BME280;54380;47.770;11.150;2023-11-21T08:00:19;94387.72;;;8.25;63.68
67545;BME280;54380;47.770;11.150;2023-11-21T08:02:47;94383.47;;;8.24;63.97
67545;BME280;54380;47.770;11.150;2023-11-21T08:05:14;94385.09;;;8.25;64.58
67545;BME280;54380;47.770;11.150;2023-11-21T08:07:55;94382.75;;;8.28;64.14
67545;BME280;54380;47.770;11.150;2023-11-21T08:10:21;94395.16;;;8.33;63.96
67545;BME280;54380;47.770;11.150;2023-11-21T08:12:48;94385.66;;;8.32;63.81
67545;BME280;54380;47.770;11.150;2023-11-21T08:15:18;94391.97;;;8.31;63.78
67545;BME280;54380;47.770;11.150;2023-11-21T08:17:44;94392.53;;;8.33;64.18
67545;BME280;54380;47.770;11.150;2023-11-21T08:20:11;94391.25;;;8.35;63.83
67545;BME280;54380;47.770;11.150;2023-11-21T08:22:38;94388.59;;;8.35;64.09
67545;BME280;54380;47.770;11.150;2023-11-21T08:25:08;94400.97;;;8.35;63.64
67545;BME280;54380;47.770;11.150;2023-11-21T08:27:35;94399.44;;;8.39;64.17
67545;BME280;54380;47.770;11.150;2023-11-21T08:30:02;94390.53;;;8.40;64.07
67545;BME280;54380;47.770;11.150;2023-11-21T08:32:29;94403.19;;;8.43;64.04
67545;BME280;54380;47.770;11.150;2023-11-21T08:34:59;94398.72;;;8.44;64.08
67545;BME280;54380;47.770;11.150;2023-11-21T08:37:26;94395.28;;;8.43;63.70
67545;BME280;54380;47.770;11.150;2023-11-21T08:39:57;94390.81;;;8.44;63.89
67545;BME280;54380;47.770;11.150;2023-11-21T08:42:27;94389.28;;;8.48;63.95
67545;BME280;54380;47.770;11.150;2023-11-21T08:44:56;94394.28;;;8.49;64.21
67545;BME280;54380;47.770;11.150;2023-11-21T08:47:24;94394.84;;;8.51;64.44
67545;BME280;54380;47.770;11.150;2023-11-21T08:49:52;94398.25;;;8.52;63.88
67545;BME280;54380;47.770;11.150;2023-11-21T08:52:19;94398.50;;;8.50;63.78
67545;BME280;54380;47.770;11.150;2023-11-21T08:54:49;94398.75;;;8.49;64.14
67545;BME280;54380;47.770;11.150;2023-11-21T08:57:22;94397.41;;;8.46;63.64
67545;BME280;54380;47.770;11.150;2023-11-21T08:59:50;94405.81;;;8.43;63.92
67545;BME280;54380;47.770;11.150;2023-11-21T09:02:22;94407.09;;;8.41;63.74
67545;BME280;54380;47.770;11.150;2023-11-21T09:04:51;94407.88;;;8.41;63.97
67545;BME280;54380;47.770;11.150;2023-11-21T09:07:19;94411.06;;;8.43;63.65
67545;BME280;54380;47.770;11.150;2023-11-21T09:09:47;94409.47;;;8.42;64.35
67545;BME280;54380;47.770;11.150;2023-11-21T09:12:14;94414.50;;;8.44;64.12
67545;BME280;54380;47.770;11.150;2023-11-21T09:14:41;94407.38;;;8.44;64.09
67545;BME280;54380;47.770;11.150;2023-11-21T09:17:10;94412.41;;;8.46;64.58
67545;BME280;54380;47.770;11.150;2023-11-21T09:19:40;94414.25;;;8.45;64.56
67545;BME280;54380;47.770;11.150;2023-11-21T09:22:08;94422.44;;;8.49;64.02
67545;BME280;54380;47.770;11.150;2023-11-21T09:24:34;94424.56;;;8.52;63.90
67545;BME280;54380;47.770;11.150;2023-11-21T09:27:03;94424.31;;;8.53;64.25
67545;BME280;54380;47.770;11.150;2023-11-21T09:29:31;94424.38;;;8.59;64.30
67545;BME280;54380;47.770;11.150;2023-11-21T09:32:01;94432.31;;;8.64;63.90
67545;BME280;54380;47.770;11.150;2023-11-21T09:34:29;94426.56;;;8.67;64.37
67545;BME280;54380;47.770;11.150;2023-11-21T09:36:55;94428.13;;;8.68;63.46
67545;BME280;54380;47.770;11.150;2023-11-21T09:39:22;94428.69;;;8.70;64.04
67545;BME280;54380;47.770;11.150;2023-11-21T09:41:51;94423.97;;;8.72;64.28
67545;BME280;54380;47.770;11.150;2023-11-21T09:44:18;94430.81;;;8.73;64.11
67545;BME280;54380;47.770;11.150;2023-11-21T09:46:47;94423.97;;;8.72;64.05
67545;BME280;54380;47.770;11.150;2023-11-21T09:49:15;94426.06;;;8.70;63.72
67545;BME280;54380;47.770;11.150;2023-11-21T09:51:47;94421.31;;;8.67;64.19
67545;BME280;54380;47.770;11.150;2023-11-21T09:54:14;94418.13;;;8.65;64.26
67545;BME280;54380;47.770;11.150;2023-11-21T09:56:42;94421.81;;;8.69;64.27
67545;BME280;54380;47.770;11.150;2023-11-21T09:59:10;94422.69;;;8.74;64.12
67545;BME280;54380;47.770;11.150;2023-11-21T10:01:39;94421.44;;;8.82;64.08
67545;BME280;54380;47.770;11.150;2023-11-21T10:04:07;94423.81;;;8.84;64.13
67545;BME280;54380;47.770;11.150;2023-11-21T10:06:39;94418.00;;;8.82;64.14
67545;BME280;54380;47.770;11.150;2023-11-21T10:09:07;94420.09;;;8.79;63.49
67545;BME280;54380;47.770;11.150;2023-11-21T10:11:39;94417.47;;;8.79;63.73
67545;BME280;54380;47.770;11.150;2023-11-21T10:14:07;94414.84;;;8.79;63.91
67545;BME280;54380;47.770;11.150;2023-11-21T10:16:36;94421.97;;;8.84;64.17
67545;BME280;54380;47.770;11.150;2023-11-21T10:19:05;94421.47;;;8.87;63.66
67545;BME280;54380;47.770;11.150;2023-11-21T10:21:37;94424.13;;;8.92;64.05
67545;BME280;54380;47.770;11.150;2023-11-21T10:24:04;94426.28;;;8.95;63.89
67545;BME280;54380;47.770;11.150;2023-11-21T10:26:33;94422.09;;;8.99;64.20
67545;BME280;54380;47.770;11.150;2023-11-21T10:29:16;94421.06;;;9.00;63.96
67545;BME280;54380;47.770;11.150;2023-11-21T10:31:45;94418.72;;;9.04;63.92
67545;BME280;54380;47.770;11.150;2023-11-21T10:34:15;94416.38;;;9.08;63.24
67545;BME280;54380;47.770;11.150;2023-11-21T10:36:42;94418.50;;;9.11;63.10
67545;BME280;54380;47.770;11.150;2023-11-21T10:39:09;94416.41;;;9.13;63.63
67545;BME280;54380;47.770;11.150;2023-11-21T10:41:40;94415.66;;;9.17;63.12
67545;BME280;54380;47.770;11.150;2023-11-21T10:44:06;94417.00;;;9.20;62.73
67545;BME280;54380;47.770;11.150;2023-11-21T10:46:35;94415.94;;;9.21;63.24
67545;BME280;54380;47.770;11.150;2023-11-21T10:49:03;94419.34;;;9.21;62.84
67545;BME280;54380;47.770;11.150;2023-11-21T10:51:30;94414.13;;;9.27;63.36
67545;BME280;54380;47.770;11.150;2023-11-21T10:53:57;94416.81;;;9.32;62.91
67545;BME280;54380;47.770;11.150;2023-11-21T10:56:25;94418.41;;;9.33;62.67
67545;BME280;54380;47.770;11.150;2023-11-21T10:58:53;94424.69;;;9.32;62.51
67545;BME280;54380;47.770;11.150;2023-11-21T11:01:20;94420.75;;;9.34;62.83
67545;BME280;54380;47.770;11.150;2023-11-21T11:03:50;94413.94;;;9.33;62.25
67545;BME280;54380;47.770;11.150;2023-11-21T11:06:16;94412.88;;;9.34;62.22
67545;BME280;54380;47.770;11.150;2023-11-21T11:08:44;94419.75;;;9.35;62.26
67545;BME280;54380;47.770;11.150;2023-11-21T11:11:12;94422.66;;;9.39;63.02
67545;BME280;54380;47.770;11.150;2023-11-21T11:13:43;94410.31;;;9.44;62.58
67545;BME280;54380;47.770;11.150;2023-11-21T11:16:12;94422.72;;;9.49;62.15
67545;BME280;54380;47.770;11.150;2023-11-21T11:18:38;94413.28;;;9.53;62.67
67545;BME280;54380;47.770;11.150;2023-11-21T11:21:07;94409.34;;;9.56;61.88
67545;BME280;54380;47.770;11.150;2023-11-21T11:23:42;94404.59;;;9.58;62.41
67545;BME280;54380;47.770;11.150;2023-11-21T11:26:16;94407.25;;;9.63;62.27
67545;BME280;54380;47.770;11.150;2023-11-21T11:28:47;94403.34;;;9.71;62.34
67545;BME280;54380;47.770;11.150;2023-11-21T11:31:24;94400.19;;;9.74;61.95
67545;BME280;54380;47.770;11.150;2023-11-21T11:33:56;94404.94;;;9.77;61.84
67545;BME280;54380;47.770;11.150;2023-11-21T11:36:25;94406.53;;;9.78;61.73
67545;BME280;54380;47.770;11.150;2023-11-21T11:38:52;94398.63;;;9.78;61.80
67545;BME280;54380;47.770;11.150;2023-11-21T11:41:24;94399.66;;;9.77;62.32
67545;BME280;54380;47.770;11.150;2023-11-21T11:43:51;94403.63;;;9.74;62.37
67545;BME280;54380;47.770;11.150;2023-11-21T11:46:18;94407.31;;;9.73;61.95
67545;BME280;54380;47.770;11.150;2023-11-21T11:48:46;94398.38;;;9.74;62.42
67545;BME280;54380;47.770;11.150;2023-11-21T11:51:13;94401.50;;;9.76;62.00
67545;BME280;54380;47.770;11.150;2023-11-21T11:53:43;94401.28;;;9.83;62.12
67545;BME280;54380;47.770;11.150;2023-11-21T11:59:03;94400.78;;;9.86;62.10
67545;BME280;54380;47.770;11.150;2023-11-21T12:01:31;94400.81;;;9.91;62.07
67545;BME280;54380;47.770;11.150;2023-11-21T12:06:48;94398.47;;;10.05;61.69
67545;BME280;54380;47.770;11.150;2023-11-21T12:09:17;94399.25;;;10.05;61.52
67545;BME280;54380;47.770;11.150;2023-11-21T12:11:44;94403.50;;;10.06;61.96
67545;BME280;54380;47.770;11.150;2023-11-21T12:14:12;94397.44;;;10.06;61.18
67545;BME280;54380;47.770;11.150;2023-11-21T12:16:40;94400.88;;;10.06;61.30
67545;BME280;54380;47.770;11.150;2023-11-21T12:19:07;94396.66;;;10.10;61.36
67545;BME280;54380;47.770;11.150;2023-11-21T12:21:33;94402.22;;;10.14;61.61
67545;BME280;54380;47.770;11.150;2023-11-21T12:24:02;94394.81;;;10.16;60.54
67545;BME280;54380;47.770;11.150;2023-11-21T12:26:29;94398.53;;;10.15;60.96
67545;BME280;54380;47.770;11.150;2023-11-21T12:28:56;94398.75;;;10.14;60.67
67545;BME280;54380;47.770;11.150;2023-11-21T12:31:22;94408.53;;;10.13;61.04
67545;BME280;54380;47.770;11.150;2023-11-21T12:33:51;94401.13;;;10.10;61.12
67545;BME280;54380;47.770;11.150;2023-11-21T12:36:18;94409.81;;;10.05;61.14
67545;BME280;54380;47.770;11.150;2023-11-21T12:38:45;94408.25;;;10.04;60.68
67545;BME280;54380;47.770;11.150;2023-11-21T12:41:15;94408.47;;;10.03;60.97
67545;BME280;54380;47.770;11.150;2023-11-21T12:43:42;94402.19;;;10.04;61.22
67545;BME280;54380;47.770;11.150;2023-11-21T12:46:10;94400.31;;;10.04;61.34
67545;BME280;54380;47.770;11.150;2023-11-21T12:48:37;94402.72;;;10.06;61.39
67545;BME280;54380;47.770;11.150;2023-11-21T12:51:05;94408.00;;;10.06;61.31
67545;BME280;54380;47.770;11.150;2023-11-21T12:53:33;94403.22;;;10.08;61.39
67545;BME280;54380;47.770;11.150;2023-11-21T12:56:06;94411.97;;;10.08;61.23
67545;BME280;54380;47.770;11.150;2023-11-21T12:58:36;94412.75;;;10.09;61.09
67545;BME280;54380;47.770;11.150;2023-11-21T13:01:05;94409.59;;;10.12;61.60
67545;BME280;54380;47.770;11.150;2023-11-21T13:03:38;94403.78;;;10.15;61.30
67545;BME280;54380;47.770;11.150;2023-11-21T13:06:06;94405.38;;;10.16;61.10
67545;BME280;54380;47.770;11.150;2023-11-21T13:08:34;94407.22;;;10.16;61.07